Moorefield, West Virginia
Current Conditions -  °F | °C
As of 1:35 PM on Monday 26 Jan 2015 (Local Time) from KW99 Reporting Station
Light Snow Light Snow  
Wind Chill: 32°   Ceiling: 1000
Heat Index: 32°   Visibility: 1mi
Dew Point: 32°   Wind: 0mph
Humidity: 99%   Direction: NA
Pressure: 29.71"   Gusts: NA
Location:  39.06°N, 78.97°W
Report Text: KW99 261835Z AUTO 00000KT 1SM -SN BKN010 OVC017 00/00 A2971 RMK AO2 P0003 T00001001
Loading
Personal Weather Stations






























Interactive Weather Map New forecast layout! Learn more

10-Day Weather Forecast

Advertisements
Track Severe Weather on mobile